Time;durP1;ratioP1;P1;durP2;ratioP2;P2;SDS_P1;SDS_P2;PMS_P1;PMS_P2;Temp;Humidity;BMP_temperature;BMP_pressure;BME280_temperature;BME280_humidity;BME280_pressure;Samples;Min_cycle;Max_cycle;Signal;HPM_P1;HPM_P2
2021/01/16 00:00:50;;;;;;;26.42;14.85;;;-0.70;99.90;;;;;;5072777;28;20044;-63
2021/01/16 00:03:16;;;;;;;26.38;14.40;;;-0.60;99.90;;;;;;5067159;28;20029;-62
2021/01/16 00:05:43;;;;;;;26.02;13.98;;;-0.70;99.90;;;;;;5044847;28;20700;-61
2021/01/16 00:08:10;;;;;;;26.95;15.32;;;-0.70;99.90;;;;;;5072261;28;20032;-61
2021/01/16 00:10:52;;;;;;;26.88;14.52;;;-0.70;99.90;;;;;;5071793;28;20048;-62
2021/01/16 00:13:20;;;;;;;24.75;14.68;;;-0.70;99.90;;;;;;5073440;28;20035;-64
2021/01/16 00:15:46;;;;;;;25.83;14.35;;;-0.70;99.90;;;;;;5071144;28;20020;-62
2021/01/16 00:18:17;;;;;;;27.02;15.40;;;-0.70;99.90;;;;;;5072658;28;20036;-62
2021/01/16 00:20:46;;;;;;;28.55;14.93;;;-0.70;99.90;;;;;;5062039;28;20473;-63
2021/01/16 00:23:13;;;;;;;28.67;15.48;;;-0.70;99.90;;;;;;5072409;28;20384;-61
2021/01/16 00:25:39;;;;;;;25.30;14.75;;;-0.70;99.90;;;;;;5053738;28;20040;-62
2021/01/16 00:28:05;;;;;;;28.42;15.20;;;-0.60;99.90;;;;;;5053331;28;20037;-61
2021/01/16 00:30:34;;;;;;;27.27;15.18;;;-0.60;99.90;;;;;;5069210;28;20036;-62
2021/01/16 00:33:30;;;;;;;29.35;15.93;;;-0.60;99.90;;;;;;5035247;28;20110;-63
2021/01/16 00:35:57;;;;;;;28.13;15.32;;;-0.70;99.90;;;;;;5052697;28;20044;-62
2021/01/16 00:38:28;;;;;;;28.40;15.52;;;-0.70;99.90;;;;;;5072064;28;20032;-64
2021/01/16 00:40:55;;;;;;;28.73;15.82;;;-0.70;99.90;;;;;;5067732;28;20032;-62
2021/01/16 00:43:21;;;;;;;27.40;15.15;;;-0.70;99.90;;;;;;5072610;28;20142;-63
2021/01/16 00:45:48;;;;;;;27.85;15.93;;;-0.70;99.90;;;;;;5071114;28;20453;-62
2021/01/16 00:48:16;;;;;;;26.33;16.17;;;-0.80;99.90;;;;;;5071365;28;20032;-62
2021/01/16 00:50:44;;;;;;;27.95;16.05;;;-0.80;99.90;;;;;;5070380;28;20033;-62
2021/01/16 00:53:10;;;;;;;30.52;15.52;;;-0.70;99.90;;;;;;5071792;28;20385;-62
2021/01/16 00:55:36;;;;;;;26.85;14.30;;;-0.70;99.90;;;;;;5070376;28;20031;-62
2021/01/16 00:58:22;;;;;;;27.70;15.63;;;-0.70;99.90;;;;;;5071807;28;20385;-62
2021/01/16 01:00:49;;;;;;;26.05;14.93;;;-0.70;99.90;;;;;;5068018;28;20039;-63
2021/01/16 01:03:24;;;;;;;28.50;15.73;;;-0.70;99.90;;;;;;5054174;28;20028;-62
2021/01/16 01:05:50;;;;;;;30.63;16.95;;;-0.70;99.90;;;;;;5071418;28;20113;-63
2021/01/16 01:08:16;;;;;;;28.92;15.82;;;-0.70;99.90;;;;;;5051242;28;20028;-61
2021/01/16 01:10:46;;;;;;;33.10;17.50;;;-0.80;99.90;;;;;;5060836;28;20033;-63
2021/01/16 01:13:13;;;;;;;26.73;16.05;;;-0.70;99.90;;;;;;5071250;28;20039;-62
2021/01/16 01:15:39;;;;;;;30.33;16.98;;;-0.80;99.90;;;;;;5071024;28;20507;-62
2021/01/16 01:18:05;;;;;;;31.58;17.92;;;-0.70;99.90;;;;;;5065739;28;20044;-62
2021/01/16 01:20:32;;;;;;;31.23;16.95;;;-0.70;99.90;;;;;;5069710;28;20041;-62
2021/01/16 01:22:58;;;;;;;31.45;16.40;;;-0.70;99.90;;;;;;5049327;28;20021;-63
2021/01/16 01:25:24;;;;;;;32.97;17.80;;;-0.70;99.90;;;;;;5051247;28;20087;-64
2021/01/16 01:27:52;;;;;;;32.20;17.13;;;-0.80;99.90;;;;;;5067346;28;20039;-62
2021/01/16 01:30:19;;;;;;;28.83;15.48;;;-0.80;99.90;;;;;;5068378;28;20500;-62
2021/01/16 01:32:45;;;;;;;32.38;16.50;;;-0.80;99.90;;;;;;5070354;28;20176;-62
2021/01/16 01:35:12;;;;;;;30.40;16.52;;;-0.80;99.90;;;;;;5069568;28;20497;-62
2021/01/16 01:37:47;;;;;;;33.63;17.70;;;-0.80;99.90;;;;;;5056337;28;20366;-62
2021/01/16 01:40:14;;;;;;;31.42;17.10;;;-0.80;99.90;;;;;;5065297;28;20644;-62
2021/01/16 01:42:40;;;;;;;32.80;16.67;;;-0.80;99.90;;;;;;5057683;28;20071;-62
2021/01/16 01:45:09;;;;;;;31.45;17.75;;;-0.80;99.90;;;;;;5058179;28;20020;-62
2021/01/16 01:47:37;;;;;;;36.25;18.15;;;-0.80;99.90;;;;;;5070631;28;20119;-62
2021/01/16 01:50:05;;;;;;;28.85;16.15;;;-0.80;99.90;;;;;;5070603;28;20044;-62
2021/01/16 01:52:33;;;;;;;29.90;15.85;;;-0.80;99.90;;;;;;5069767;28;20450;-62
2021/01/16 01:54:59;;;;;;;30.90;16.33;;;-0.80;99.90;;;;;;5063564;28;20104;-62
2021/01/16 01:57:26;;;;;;;33.95;17.55;;;-0.80;99.90;;;;;;5066275;28;20417;-64
2021/01/16 01:59:54;;;;;;;31.27;16.38;;;-0.80;99.90;;;;;;5068306;28;20064;-63
2021/01/16 02:02:20;;;;;;;29.98;17.27;;;-0.80;99.90;;;;;;5050976;28;20491;-62
2021/01/16 02:04:48;;;;;;;31.90;17.08;;;-0.80;99.90;;;;;;5057683;28;20762;-62
2021/01/16 02:07:25;;;;;;;32.70;16.83;;;-0.80;99.90;;;;;;5067379;28;20815;-62
2021/01/16 02:09:51;;;;;;;30.88;17.08;;;-0.80;99.90;;;;;;5074753;28;20090;-62
2021/01/16 02:12:17;;;;;;;31.05;16.48;;;-0.80;99.90;;;;;;5074772;28;20025;-62
2021/01/16 02:14:51;;;;;;;31.48;16.52;;;-0.70;99.90;;;;;;5073539;28;20089;-62
2021/01/16 02:17:20;;;;;;;34.05;16.75;;;-0.70;99.90;;;;;;5069684;28;20355;-62
2021/01/16 02:19:57;;;;;;;32.47;17.50;;;-0.70;99.90;;;;;;5053668;28;20032;-61
2021/01/16 02:22:30;;;;;;;32.17;17.77;;;-0.70;99.90;;;;;;5054901;28;20516;-64
2021/01/16 02:25:48;;;;;;;34.78;18.00;;;-0.70;99.90;;;;;;5070986;28;20509;-61
2021/01/16 02:28:26;;;;;;;31.27;16.00;;;-0.80;99.90;;;;;;5065314;28;20094;-62
2021/01/16 02:30:53;;;;;;;32.15;17.75;;;-0.80;99.90;;;;;;5057383;28;20454;-62
2021/01/16 02:33:22;;;;;;;34.50;18.42;;;-0.80;99.90;;;;;;5074941;28;20052;-62
2021/01/16 02:36:16;;;;;;;36.78;18.50;;;-0.80;99.90;;;;;;5055252;28;20521;-61
2021/01/16 02:39:00;;;;;;;36.72;18.88;;;-0.80;99.90;;;;;;5069328;28;20032;-62
2021/01/16 02:41:50;;;;;;;32.00;16.50;;;-0.70;99.90;;;;;;5074496;28;20039;-64
2021/01/16 02:44:22;;;;;;;34.72;18.98;;;-0.80;99.90;;;;;;5072285;28;20028;-62
2021/01/16 02:46:57;;;;;;;34.97;18.77;;;-0.80;99.90;;;;;;5071697;28;20033;-62
2021/01/16 02:49:30;;;;;;;30.92;17.60;;;-0.80;99.90;;;;;;5074864;28;20082;-63
2021/01/16 02:52:01;;;;;;;38.95;19.80;;;-0.80;99.90;;;;;;5067703;28;20033;-63
2021/01/16 02:54:27;;;;;;;36.83;18.85;;;-0.80;99.90;;;;;;5064668;28;20035;-64
2021/01/16 02:56:54;;;;;;;40.88;19.73;;;-0.80;99.90;;;;;;5074821;28;20024;-62
2021/01/16 02:59:20;;;;;;;36.88;18.73;;;-0.80;99.90;;;;;;5074715;28;20408;-62
2021/01/16 03:01:46;;;;;;;37.72;19.70;;;-0.70;99.90;;;;;;5072148;28;20104;-63
2021/01/16 03:04:12;;;;;;;38.22;18.80;;;-0.70;99.90;;;;;;5067836;28;20025;-62
2021/01/16 03:06:50;;;;;;;34.85;18.45;;;-0.80;99.90;;;;;;5055671;28;20036;-63
2021/01/16 03:09:18;;;;;;;36.13;19.63;;;-0.80;99.90;;;;;;5056320;28;20032;-62
2021/01/16 03:11:45;;;;;;;35.53;18.60;;;-0.70;99.90;;;;;;5073241;28;20454;-62
2021/01/16 03:14:12;;;;;;;37.95;19.63;;;-0.70;99.90;;;;;;5069586;28;20025;-62
2021/01/16 03:16:52;;;;;;;33.78;17.63;;;-0.70;99.90;;;;;;5065529;28;20036;-63
2021/01/16 03:19:23;;;;;;;33.95;18.13;;;-0.60;99.90;;;;;;5073991;28;20047;-62
2021/01/16 03:21:49;;;;;;;32.70;17.70;;;-0.70;99.90;;;;;;5073366;28;20052;-62
2021/01/16 03:24:15;;;;;;;35.22;17.13;;;-0.70;99.90;;;;;;5067482;28;20544;-62
2021/01/16 03:26:40;;;;;;;29.58;16.60;;;-0.80;99.90;;;;;;5057447;28;20029;-62
2021/01/16 03:29:06;;;;;;;32.92;17.48;;;-0.80;99.90;;;;;;5065457;28;20024;-62
2021/01/16 03:31:32;;;;;;;31.65;16.90;;;-0.70;99.90;;;;;;5072901;28;20051;-63
2021/01/16 03:33:57;;;;;;;31.42;17.45;;;-0.70;99.90;;;;;;5073696;28;20031;-62
2021/01/16 03:36:23;;;;;;;32.05;17.10;;;-0.70;99.90;;;;;;5060806;28;20029;-63
2021/01/16 03:38:48;;;;;;;36.95;18.13;;;-0.70;99.90;;;;;;5053490;28;20044;-62
2021/01/16 03:41:14;;;;;;;32.10;17.58;;;-0.70;99.90;;;;;;5052362;28;20546;-62
2021/01/16 03:43:40;;;;;;;35.63;19.35;;;-0.80;99.90;;;;;;5072082;28;20047;-63
2021/01/16 03:46:06;;;;;;;35.30;18.63;;;-0.80;99.90;;;;;;5072519;28;20492;-63
2021/01/16 03:48:33;;;;;;;30.58;16.50;;;-0.70;99.90;;;;;;5072284;28;20028;-62
2021/01/16 03:50:59;;;;;;;33.55;17.52;;;-0.80;99.90;;;;;;5073582;28;20062;-63
2021/01/16 03:53:25;;;;;;;35.75;19.08;;;-0.80;99.90;;;;;;5058975;28;20021;-63
2021/01/16 03:55:51;;;;;;;35.15;18.83;;;-0.80;99.90;;;;;;5062648;28;20032;-62
2021/01/16 03:58:16;;;;;;;35.95;19.00;;;-0.80;99.90;;;;;;5073566;28;20512;-62
2021/01/16 04:00:42;;;;;;;30.13;16.50;;;-0.80;99.90;;;;;;5071261;28;20067;-62
2021/01/16 04:03:07;;;;;;;32.22;16.58;;;-0.80;99.90;;;;;;5072723;28;20411;-62
2021/01/16 04:05:33;;;;;;;35.40;18.98;;;-0.90;99.90;;;;;;5061020;28;20024;-63
2021/01/16 04:08:00;;;;;;;37.80;20.05;;;-0.90;99.90;;;;;;5073064;28;20365;-62
2021/01/16 04:10:25;;;;;;;33.15;18.23;;;-0.80;99.90;;;;;;5058616;28;20033;-63
2021/01/16 04:12:51;;;;;;;37.83;18.90;;;-0.90;99.90;;;;;;5054651;28;20029;-62
2021/01/16 04:15:17;;;;;;;44.58;22.08;;;-0.90;99.90;;;;;;5071652;28;20029;-62
2021/01/16 04:17:42;;;;;;;37.67;18.98;;;-0.90;99.90;;;;;;5071671;28;20040;-63
2021/01/16 04:20:09;;;;;;;38.38;19.08;;;-0.90;99.90;;;;;;5055258;28;20024;-62
2021/01/16 04:22:38;;;;;;;38.63;19.35;;;-0.90;99.90;;;;;;5071277;28;20056;-62
2021/01/16 04:25:07;;;;;;;38.53;19.23;;;-0.90;99.90;;;;;;5072489;28;20108;-63
2021/01/16 04:27:33;;;;;;;37.93;18.87;;;-0.90;99.90;;;;;;5071818;28;20039;-63
2021/01/16 04:30:00;;;;;;;41.65;20.63;;;-0.90;99.90;;;;;;5072506;28;20623;-62
2021/01/16 04:32:26;;;;;;;31.23;17.45;;;-0.90;99.90;;;;;;5054643;28;20108;-62
2021/01/16 04:34:51;;;;;;;39.03;19.92;;;-0.80;99.90;;;;;;5061952;28;20120;-62
2021/01/16 04:37:17;;;;;;;37.70;19.95;;;-0.80;99.90;;;;;;5052579;28;20390;-62
2021/01/16 04:39:42;;;;;;;40.20;20.23;;;-0.80;99.90;;;;;;5052989;28;20119;-62
2021/01/16 04:42:14;;;;;;;38.78;19.92;;;-0.80;99.90;;;;;;5052481;28;20075;-62
2021/01/16 04:44:44;;;;;;;39.03;20.35;;;-0.80;99.90;;;;;;5057689;28;20083;-62
2021/01/16 04:47:22;;;;;;;34.67;18.27;;;-0.90;99.90;;;;;;5072809;28;20124;-62
2021/01/16 04:49:49;;;;;;;36.80;19.40;;;-0.80;99.90;;;;;;5071397;28;20036;-62
2021/01/16 04:52:23;;;;;;;37.15;19.27;;;-0.90;99.90;;;;;;5071854;28;20039;-62
2021/01/16 04:54:54;;;;;;;39.47;20.50;;;-0.80;99.90;;;;;;5040244;28;20886;-62
2021/01/16 04:57:19;;;;;;;36.10;19.13;;;-0.80;99.90;;;;;;5051816;28;20033;-62
2021/01/16 04:59:47;;;;;;;38.70;19.88;;;-0.80;99.90;;;;;;5053824;28;20040;-62
2021/01/16 05:02:14;;;;;;;32.33;18.40;;;-0.80;99.90;;;;;;5060441;28;20035;-62
2021/01/16 05:04:43;;;;;;;35.10;17.70;;;-0.80;99.90;;;;;;5063638;28;20075;-62
2021/01/16 05:07:09;;;;;;;36.67;18.30;;;-0.80;99.90;;;;;;5067674;28;20110;-63
2021/01/16 05:09:40;;;;;;;39.05;19.83;;;-0.80;99.90;;;;;;5053157;28;20024;-62
2021/01/16 05:12:18;;;;;;;33.35;18.05;;;-0.80;99.90;;;;;;5071491;28;20056;-62
2021/01/16 05:14:59;;;;;;;38.78;18.88;;;-0.90;99.90;;;;;;5046636;28;20044;-62
2021/01/16 05:17:27;;;;;;;33.42;17.75;;;-0.90;99.90;;;;;;5066388;28;20054;-62
2021/01/16 05:19:54;;;;;;;32.88;18.35;;;-0.90;99.90;;;;;;5070583;28;20036;-62
2021/01/16 05:22:20;;;;;;;33.55;18.33;;;-0.90;99.90;;;;;;5072041;28;20074;-62
2021/01/16 05:24:46;;;;;;;34.08;18.05;;;-0.90;99.90;;;;;;5064308;28;20025;-63
2021/01/16 05:27:19;;;;;;;34.75;18.25;;;-0.80;99.90;;;;;;5061432;28;20029;-62
2021/01/16 05:29:45;;;;;;;32.20;17.95;;;-0.90;99.90;;;;;;5070284;28;20029;-62
2021/01/16 05:32:16;;;;;;;37.30;18.88;;;-0.90;99.90;;;;;;5071302;28;20115;-62
2021/01/16 05:34:41;;;;;;;34.38;18.60;;;-0.90;99.90;;;;;;5070658;28;20021;-63
2021/01/16 05:37:07;;;;;;;33.40;18.27;;;-0.90;99.90;;;;;;5053231;28;20527;-62
2021/01/16 05:39:34;;;;;;;34.33;17.65;;;-0.90;99.90;;;;;;5070192;28;20446;-65
2021/01/16 05:42:02;;;;;;;32.55;17.80;;;-0.90;99.90;;;;;;5071445;28;20028;-62
2021/01/16 05:44:28;;;;;;;29.80;16.55;;;-0.90;99.90;;;;;;5066369;28;20104;-62
2021/01/16 05:46:56;;;;;;;35.17;17.48;;;-0.90;99.90;;;;;;5058575;28;20111;-62
2021/01/16 05:49:22;;;;;;;35.55;18.38;;;-0.90;99.90;;;;;;5058058;28;20028;-62
2021/01/16 05:51:49;;;;;;;36.15;17.98;;;-0.90;99.90;;;;;;5038263;28;20033;-62
2021/01/16 05:54:16;;;;;;;34.97;17.80;;;-0.80;99.90;;;;;;5070513;28;20188;-62
2021/01/16 05:56:42;;;;;;;32.75;18.17;;;-0.80;99.90;;;;;;5071027;28;20025;-63
2021/01/16 05:59:15;;;;;;;37.03;18.08;;;-0.80;99.90;;;;;;5070935;28;20445;-63
2021/01/16 06:01:44;;;;;;;34.40;18.95;;;-0.80;99.90;;;;;;5058209;28;20044;-62
2021/01/16 06:04:15;;;;;;;36.90;18.42;;;-0.80;99.90;;;;;;5057984;28;20373;-62
2021/01/16 06:06:40;;;;;;;39.60;19.75;;;-0.80;99.90;;;;;;5070797;28;20024;-62
2021/01/16 06:09:14;;;;;;;38.15;19.23;;;-0.70;99.90;;;;;;5053132;28;20035;-62
2021/01/16 06:11:47;;;;;;;36.47;18.27;;;-0.80;99.90;;;;;;5070471;28;20021;-62
2021/01/16 06:14:14;;;;;;;36.72;19.38;;;-0.80;99.90;;;;;;5064908;28;20032;-64
2021/01/16 06:16:54;;;;;;;34.55;18.88;;;-0.80;99.90;;;;;;5069726;28;20115;-62
2021/01/16 06:19:25;;;;;;;38.80;20.10;;;-0.80;99.90;;;;;;5071342;28;20044;-62
2021/01/16 06:21:51;;;;;;;37.20;19.00;;;-0.80;99.90;;;;;;5064970;28;20076;-63
2021/01/16 06:24:22;;;;;;;40.33;20.73;;;-0.90;99.90;;;;;;5069183;28;20031;-62
2021/01/16 06:27:10;;;;;;;37.08;19.42;;;-0.90;99.90;;;;;;5050168;28;20039;-62
2021/01/16 06:29:37;;;;;;;37.72;19.35;;;-0.90;99.90;;;;;;5049785;28;20040;-62
2021/01/16 06:32:02;;;;;;;40.65;21.30;;;-0.90;99.90;;;;;;5057331;28;20437;-61
2021/01/16 06:34:30;;;;;;;43.50;21.27;;;-0.90;99.90;;;;;;5070953;28;20100;-61
2021/01/16 06:37:16;;;;;;;41.25;21.60;;;-0.90;99.90;;;;;;5062902;28;20025;-62
2021/01/16 06:39:43;;;;;;;41.88;21.33;;;-0.90;99.90;;;;;;5040676;28;20466;-62
2021/01/16 06:42:14;;;;;;;42.92;20.52;;;-0.90;99.90;;;;;;5062917;28;20032;-62
2021/01/16 06:44:40;;;;;;;37.72;19.90;;;-0.90;99.90;;;;;;5050151;28;20029;-62
2021/01/16 06:47:07;;;;;;;35.05;19.50;;;-0.90;99.90;;;;;;5052115;28;20021;-62
2021/01/16 06:49:34;;;;;;;40.90;21.52;;;-1.00;99.90;;;;;;5060755;28;20461;-63
2021/01/16 06:52:02;;;;;;;38.92;20.92;;;-1.00;99.90;;;;;;5072332;28;20037;-62
2021/01/16 06:54:34;;;;;;;39.63;19.55;;;-1.00;99.90;;;;;;5074374;28;20465;-62
2021/01/16 06:57:05;;;;;;;35.65;19.75;;;-0.90;99.90;;;;;;5071597;28;20036;-63
2021/01/16 06:59:32;;;;;;;40.22;20.42;;;-1.00;99.90;;;;;;5074255;28;20063;-62
2021/01/16 07:01:58;;;;;;;35.13;19.02;;;-1.00;99.90;;;;;;5072276;28;20457;-62
2021/01/16 07:04:28;;;;;;;39.75;21.58;;;-1.00;99.90;;;;;;5074443;28;20024;-62
2021/01/16 07:06:55;;;;;;;39.80;20.33;;;-1.00;99.90;;;;;;5055579;28;20172;-63
2021/01/16 07:09:23;;;;;;;41.22;20.83;;;-1.00;99.90;;;;;;5055221;28;20062;-63
2021/01/16 07:11:53;;;;;;;36.92;20.17;;;-1.00;99.90;;;;;;5072891;28;20461;-62
2021/01/16 07:14:21;;;;;;;37.67;20.00;;;-1.00;99.90;;;;;;5062915;28;20032;-63
2021/01/16 07:16:49;;;;;;;38.80;18.90;;;-1.00;99.90;;;;;;5063666;28;20021;-63
2021/01/16 07:19:22;;;;;;;38.28;19.42;;;-0.90;99.90;;;;;;5063103;28;20462;-63
2021/01/16 07:21:49;;;;;;;38.28;18.17;;;-0.90;99.90;;;;;;5044579;28;20131;-63
2021/01/16 07:24:16;;;;;;;37.97;18.70;;;-0.90;99.90;;;;;;5062023;28;20096;-63
2021/01/16 07:26:48;;;;;;;34.10;17.58;;;-0.90;99.90;;;;;;5046062;28;20029;-62
2021/01/16 07:29:15;;;;;;;36.03;19.40;;;-0.90;99.90;;;;;;5062456;28;20474;-64
2021/01/16 07:31:44;;;;;;;36.95;19.48;;;-0.90;99.90;;;;;;5065320;28;20025;-64
2021/01/16 07:34:11;;;;;;;34.63;18.65;;;-1.00;99.90;;;;;;5063350;28;20077;-64
2021/01/16 07:36:37;;;;;;;35.90;18.73;;;-0.90;99.90;;;;;;5058634;28;20025;-65
2021/01/16 07:39:11;;;;;;;37.60;17.95;;;-0.90;99.90;;;;;;5062742;28;20036;-64
2021/01/16 07:41:38;;;;;;;33.33;17.35;;;-0.90;99.90;;;;;;5061814;28;20074;-65
2021/01/16 07:44:11;;;;;;;34.42;17.67;;;-0.90;99.90;;;;;;5063237;28;20029;-64
2021/01/16 07:46:39;;;;;;;32.15;17.15;;;-0.90;99.90;;;;;;5059277;28;20031;-66
2021/01/16 07:49:07;;;;;;;38.67;17.85;;;-0.90;99.90;;;;;;5061225;28;20067;-64
2021/01/16 07:51:39;;;;;;;34.28;18.20;;;-0.80;99.90;;;;;;5060062;28;20033;-64
2021/01/16 07:54:06;;;;;;;32.90;16.90;;;-0.80;99.90;;;;;;5065704;28;20036;-61
2021/01/16 07:56:43;;;;;;;32.08;16.90;;;-0.80;99.90;;;;;;5069382;28;20488;-65
2021/01/16 07:59:31;;;;;;;34.15;17.42;;;-0.80;99.90;;;;;;5071744;28;20562;-60
2021/01/16 08:02:16;;;;;;;33.20;17.38;;;-0.80;99.90;;;;;;5060354;28;20047;-61
2021/01/16 08:04:56;;;;;;;35.65;17.88;;;-0.80;99.90;;;;;;5051834;28;20108;-61
2021/01/16 08:07:47;;;;;;;33.35;18.00;;;-0.80;99.90;;;;;;5068357;28;20066;-61
2021/01/16 08:10:18;;;;;;;;;;;-0.80;99.90;;;;;;5073591;28;20133;-61
2021/01/16 08:12:47;;;;;;;35.53;17.63;;;-0.80;99.90;;;;;;5072165;28;20266;-65
2021/01/16 08:15:17;;;;;;;30.73;16.80;;;-0.80;99.90;;;;;;5064391;28;20029;-61
2021/01/16 08:17:45;;;;;;;34.58;18.20;;;-0.80;99.90;;;;;;5066854;28;20074;-62
2021/01/16 08:20:16;;;;;;;36.67;18.35;;;-0.80;99.90;;;;;;5072068;28;20060;-61
2021/01/16 08:22:51;;;;;;;33.00;18.08;;;-0.80;99.90;;;;;;5054277;28;20516;-61
2021/01/16 08:25:24;;;;;;;33.53;19.00;;;-0.80;99.90;;;;;;5045004;28;20029;-62
2021/01/16 08:27:56;;;;;;;32.33;16.60;;;-0.80;99.90;;;;;;5056632;28;20036;-64
2021/01/16 08:30:25;;;;;;;36.13;18.65;;;-0.80;99.90;;;;;;5046885;28;20107;-63
2021/01/16 08:33:03;;;;;;;35.15;18.50;;;-0.70;99.90;;;;;;5064567;28;20454;-63
2021/01/16 08:35:42;;;;;;;30.75;17.67;;;-0.70;99.90;;;;;;5060596;28;20024;-62
2021/01/16 08:38:18;;;;;;;42.90;20.87;;;-0.70;99.90;;;;;;5058668;28;20107;-62
2021/01/16 08:41:02;;;;;;;37.08;20.05;;;-0.70;99.90;;;;;;5058909;28;20024;-64
2021/01/16 08:43:49;;;;;;;41.53;22.27;;;-0.70;99.90;;;;;;5062302;28;20021;-62
2021/01/16 08:46:35;;;;;;;41.00;21.50;;;-0.70;99.90;;;;;;5060826;28;20474;-62
2021/01/16 08:49:09;;;;;;;38.97;21.95;;;-0.70;99.90;;;;;;5060424;28;20107;-62
2021/01/16 08:51:39;;;;;;;37.40;19.95;;;-0.70;99.90;;;;;;5068596;28;20040;-64
2021/01/16 08:54:07;;;;;;;42.50;21.60;;;-0.70;99.90;;;;;;5070434;28;20017;-61
2021/01/16 08:56:33;;;;;;;40.63;21.50;;;-0.70;99.90;;;;;;5071906;28;20086;-67
2021/01/16 08:59:14;;;;;;;40.72;21.63;;;-0.70;99.90;;;;;;5070305;28;20826;-62
2021/01/16 09:01:40;;;;;;;37.95;20.52;;;-0.60;99.90;;;;;;5071072;28;20100;-65
2021/01/16 09:04:20;;;;;;;36.55;19.83;;;-0.60;99.90;;;;;;5053713;28;20025;-62
2021/01/16 09:06:47;;;;;;;38.25;20.00;;;-0.60;99.90;;;;;;5063300;28;20514;-65
2021/01/16 09:09:16;;;;;;;32.50;18.08;;;-0.60;99.90;;;;;;5052486;28;20070;-62
2021/01/16 09:12:01;;;;;;;37.03;19.38;;;-0.60;99.90;;;;;;5033820;28;20074;-63
2021/01/16 09:14:27;;;;;;;33.95;19.13;;;-0.60;99.90;;;;;;5051497;28;20021;-71
2021/01/16 09:16:53;;;;;;;35.83;18.80;;;-0.60;99.90;;;;;;5041693;28;20032;-65
2021/01/16 09:19:29;;;;;;;37.80;20.67;;;-0.60;99.90;;;;;;5069009;28;20037;-68
2021/01/16 09:22:20;;;;;;;33.03;17.95;;;-0.60;99.90;;;;;;5071315;28;20097;-64
2021/01/16 09:24:46;;;;;;;33.58;18.20;;;-0.50;99.90;;;;;;5056749;28;20115;-65
2021/01/16 09:27:26;;;;;;;35.03;18.65;;;-0.50;99.90;;;;;;5071401;28;20104;-64
2021/01/16 09:29:53;;;;;;;33.47;17.25;;;-0.50;99.90;;;;;;5059281;28;20033;-64
2021/01/16 09:32:30;;;;;;;32.45;16.02;;;-0.40;99.90;;;;;;5051492;28;20025;-65
2021/01/16 09:34:57;;;;;;;34.42;17.13;;;-0.40;99.90;;;;;;5058377;28;20029;-64
2021/01/16 09:37:24;;;;;;;38.05;19.13;;;-0.50;99.90;;;;;;5060777;28;20423;-65
2021/01/16 09:40:04;;;;;;;32.17;17.38;;;-0.40;99.90;;;;;;5043153;28;20119;-64
2021/01/16 09:42:30;;;;;;;28.73;16.95;;;-0.40;99.90;;;;;;5071271;28;20036;-71
2021/01/16 09:44:57;;;;;;;34.20;18.23;;;-0.40;99.90;;;;;;5053195;28;20025;-68
2021/01/16 09:47:26;;;;;;;34.17;18.13;;;-0.30;99.90;;;;;;5061721;28;20025;-70
2021/01/16 09:50:00;;;;;;;27.50;15.98;;;-0.20;99.90;;;;;;5060779;28;20029;-70
2021/01/16 09:52:27;;;;;;;27.85;16.25;;;-0.10;99.90;;;;;;5062666;28;20048;-72
2021/01/16 09:54:54;;;;;;;34.45;16.45;;;-0.10;99.90;;;;;;5061693;28;20032;-70
2021/01/16 09:57:42;;;;;;;31.17;16.52;;;-0.20;99.90;;;;;;5070735;28;20115;-68
2021/01/16 10:00:15;;;;;;;31.55;15.52;;;-0.10;99.90;;;;;;5061791;28;20025;-66
2021/01/16 10:02:45;;;;;;;27.52;14.77;;;-0.10;99.90;;;;;;5050644;28;20028;-66
2021/01/16 10:05:14;;;;;;;;;;;0.00;97.80;;;;;;5051721;28;20373;-68
2021/01/16 10:07:40;;;;;;;22.63;12.50;;;0.00;96.30;;;;;;5061876;28;19912;-66
2021/01/16 10:10:17;;;;;;;23.20;12.45;;;-0.10;97.70;;;;;;5059246;28;20029;-64
2021/01/16 10:12:44;;;;;;;26.05;14.07;;;0.00;96.90;;;;;;5051451;28;20469;-65
2021/01/16 10:15:13;;;;;;;23.58;13.55;;;0.00;96.90;;;;;;5053733;28;20032;-65
2021/01/16 10:17:47;;;;;;;22.98;13.02;;;0.00;96.20;;;;;;5070562;28;20044;-65
2021/01/16 10:20:16;;;;;;;22.33;12.40;;;0.10;96.60;;;;;;5069833;28;20029;-63
2021/01/16 10:22:52;;;;;;;23.63;12.60;;;0.10;94.10;;;;;;5065184;28;20136;-66
2021/01/16 10:25:22;;;;;;;23.23;12.57;;;0.20;93.20;;;;;;5051577;28;20021;-67
2021/01/16 10:27:53;;;;;;;20.95;12.15;;;0.30;92.90;;;;;;5066538;28;20517;-65
2021/01/16 10:30:20;;;;;;;19.27;10.85;;;0.30;93.10;;;;;;5074814;28;20071;-65
2021/01/16 10:32:47;;;;;;;18.63;10.65;;;0.50;90.80;;;;;;5073937;28;20056;-65
2021/01/16 10:35:26;;;;;;;19.73;10.80;;;0.50;90.00;;;;;;5069759;28;20025;-74
2021/01/16 10:37:56;;;;;;;20.95;11.75;;;0.60;87.90;;;;;;5067590;28;20056;-69
2021/01/16 10:40:23;;;;;;;25.60;12.63;;;0.70;88.40;;;;;;5063781;28;20083;-69
2021/01/16 10:42:54;;;;;;;22.80;12.57;;;0.70;89.50;;;;;;5054348;28;20031;-66
2021/01/16 10:45:22;;;;;;;23.58;11.98;;;0.70;88.00;;;;;;5054916;28;20064;-65
2021/01/16 10:47:49;;;;;;;21.17;11.93;;;0.70;88.50;;;;;;5054212;28;20037;-69
2021/01/16 10:50:17;;;;;;;24.38;12.00;;;0.80;87.40;;;;;;5073941;28;20465;-64
2021/01/16 10:52:43;;;;;;;20.33;11.85;;;0.80;86.10;;;;;;5072966;28;20044;-67
2021/01/16 10:55:14;;;;;;;21.45;11.77;;;0.80;84.70;;;;;;5074043;28;20544;-65
2021/01/16 10:57:47;;;;;;;20.10;12.77;;;1.00;85.50;;;;;;5073695;28;20059;-65
2021/01/16 11:00:21;;;;;;;33.53;20.00;;;1.00;86.00;;;;;;5059849;28;20078;-65
2021/01/16 11:02:49;;;;;;;31.67;18.38;;;1.00;93.10;;;;;;5055769;28;20064;-65
2021/01/16 11:05:23;;;;;;;32.53;19.52;;;1.00;95.70;;;;;;5058221;28;20020;-65
2021/01/16 11:07:50;;;;;;;36.25;20.27;;;1.00;94.30;;;;;;5073534;28;20410;-65
2021/01/16 11:10:18;;;;;;;37.72;19.48;;;1.00;94.50;;;;;;5074456;28;20040;-65
2021/01/16 11:12:45;;;;;;;34.60;18.90;;;1.00;94.20;;;;;;5072112;28;20462;-65
2021/01/16 11:15:26;;;;;;;34.00;18.65;;;0.90;95.60;;;;;;5073953;28;20024;-73
2021/01/16 11:17:56;;;;;;;31.33;18.55;;;0.90;95.20;;;;;;5073385;28;20052;-68
2021/01/16 11:20:34;;;;;;;29.42;17.58;;;1.00;94.30;;;;;;5056749;28;20044;-66
2021/01/16 11:23:05;;;;;;;32.22;18.95;;;1.00;94.10;;;;;;5059895;28;20028;-66
2021/01/16 11:25:46;;;;;;;38.00;20.00;;;1.00;93.50;;;;;;5070646;28;20104;-66
2021/01/16 11:28:26;;;;;;;29.50;17.63;;;1.00;93.60;;;;;;5072541;28;20028;-70
2021/01/16 11:31:07;;;;;;;33.05;18.23;;;0.90;93.50;;;;;;5038505;28;20149;-64
2021/01/16 11:33:33;;;;;;;34.50;19.40;;;0.80;94.70;;;;;;5073740;28;20103;-74
2021/01/16 11:36:02;;;;;;;34.30;19.17;;;0.70;94.30;;;;;;5073072;28;20025;-75
2021/01/16 11:38:37;;;;;;;33.08;18.33;;;0.70;95.80;;;;;;5068020;28;20032;-72
2021/01/16 11:41:04;;;;;;;29.85;16.65;;;0.70;95.90;;;;;;5070249;28;20027;-71
2021/01/16 11:43:31;;;;;;;30.52;17.35;;;0.70;93.30;;;;;;5055583;28;20036;-73
2021/01/16 11:46:14;;;;;;;30.27;16.98;;;0.80;93.50;;;;;;5054285;28;20065;-72
2021/01/16 11:48:41;;;;;;;30.98;16.75;;;0.80;94.20;;;;;;5055968;28;20124;-77
2021/01/16 11:51:17;;;;;;;29.13;16.75;;;0.80;91.90;;;;;;5035671;28;20033;-80
2021/01/16 11:53:51;;;;;;;30.23;18.40;;;0.90;91.70;;;;;;5055319;28;20071;-80
2021/01/16 11:56:21;;;;;;;30.85;18.13;;;0.90;93.00;;;;;;5063848;28;20032;-71
2021/01/16 11:58:48;;;;;;;;;;;0.80;93.30;;;;;;5071793;28;20499;-72
2021/01/16 12:01:15;;;;;;;33.40;17.85;;;0.80;91.70;;;;;;5073999;28;19962;-66
2021/01/16 12:03:42;;;;;;;29.92;17.80;;;0.70;92.90;;;;;;5073168;28;20021;-73
2021/01/16 12:06:13;;;;;;;31.95;18.02;;;0.70;93.80;;;;;;5053787;28;20115;-72
2021/01/16 12:08:42;;;;;;;34.58;18.45;;;0.60;94.70;;;;;;5055470;28;20044;-69
2021/01/16 12:11:09;;;;;;;37.00;19.33;;;0.50;94.50;;;;;;5072952;28;20029;-71
2021/01/16 12:13:34;;;;;;;42.15;19.00;;;0.50;95.70;;;;;;5073623;28;20052;-75
2021/01/16 12:16:00;;;;;;;36.53;18.80;;;0.50;94.70;;;;;;5072674;28;20052;-74
2021/01/16 12:18:27;;;;;;;34.28;19.23;;;0.60;94.60;;;;;;5055232;28;20040;-75
2021/01/16 12:20:53;;;;;;;36.80;18.48;;;0.60;94.60;;;;;;5072759;28;20049;-76
2021/01/16 12:23:20;;;;;;;34.63;19.38;;;0.50;94.60;;;;;;5039235;28;20067;-67
2021/01/16 12:25:51;;;;;;;38.00;18.08;;;0.50;95.40;;;;;;5062277;28;20123;-68
2021/01/16 12:28:26;;;;;;;30.30;16.45;;;0.50;94.20;;;;;;5072520;28;20036;-67
2021/01/16 12:30:51;;;;;;;32.75;18.13;;;0.60;92.70;;;;;;5034596;28;20405;-66
2021/01/16 12:33:21;;;;;;;33.28;16.83;;;0.60;93.20;;;;;;5071988;28;20029;-65
2021/01/16 12:35:47;;;;;;;33.80;16.50;;;0.70;92.10;;;;;;5070653;28;20032;-65
2021/01/16 12:38:13;;;;;;;29.55;16.17;;;0.70;91.50;;;;;;5072049;28;20036;-65
2021/01/16 12:40:39;;;;;;;25.45;14.95;;;0.70;91.00;;;;;;5062258;28;20037;-69
2021/01/16 12:43:11;;;;;;;28.73;16.70;;;0.70;90.00;;;;;;5053730;28;20024;-78
2021/01/16 12:45:37;;;;;;;29.42;17.10;;;0.70;90.20;;;;;;5054640;28;20028;-80